Portada
METAR-TAF:

METAR-TAF

Aeroports :

Daegu, Corea del Sud

latitud: 35-54N, longitud: 128-39E, altitud: 35 m

Observació

L'informe es va fer fa 24 minuts, a les 23:00 UTC
Vent 2 kt del Nord-Oest
Temperatura -1°C
Humitat 64%
Pressió 1019 hPa
Visibilitat 10 km o més
sense núvols per sota de 1500 mi sense presència de cumulonimbus.

METAR: RKTN 182300Z 32002KT CAVOK M01/M07 Q1019

Hora: 08:24 (23:24 UTC)

Pronòstic

L'informe es va fer fa 6 hores i 24 minuts, a les 17:00 UTC
Pronòstic vàlid del 18 a les 18 UTC al 19 a les 24 UTC
Vent 8 kt del Nord-Oest
Visibilitat 10 km o més
Núvols disperses a una alçada de 4000 ft
Núvols disperses a una alçada de 18000 ft

TAF: RKTN 181700Z 1818/1924 31008KT 9999 SCT040 SCT180 TNM04/1821Z TX08/1906Z

Observacions i pronòstics meteorològics de més de 4000 aeroports (METAR i TAF).

Les estacions disponibles són els punts grocs i vermells al mapa.

Posi el ratolí al punt desitjat per veure el nom de l'estació.

Feu clic per veure les observacions i els pronòstics meteorològics.

Per canviar el mapa: feu clic els botons verds amb una creu de color negre per apropar; al botó verd amb un guió per allunyar la imatge; o en les fletxes verdes per a mapes adjacents.


METAR-TAF: